Welcome to La Porte Aviation Services!

An aviation adventure awaits

Current Weather Conditions

Available data for KPPO from the past 2 hours
LA PORTE, IN
Metar
KPPO 221615Z AUTO 08004KT 10SM CLR 24/16 A3001 RMK AO2 T02400161

16:15 UTC

Wind: 80° 4kt

Visibility: 10 SM

Sky:

Temp: 24 deg C / 75.2 deg F

Dewpoint: 16 deg C / 60.8 deg F

Pressure: 30.01 inHg

Pireps (10)
ORD UA /OV GSH/TM 1616/FL360/TP B737/TB CONS LGT
ORD UA /OV FWA/TM 1614/FL380/TP B737/TB CONS LGT
ORD UA /OV FWA270030/TM 1557/FL310/TP E75L/TB CONS LGT
ORD UA /OV GSH/TM 1542/FL360/TP B757/TB CONS LGT CAT
ORD UA /OV ORD310010/TM 1540/FL070/TP B737/TB MOD
ARP UAL1702 4131N 08601W 1538 F360 TB LIGHT SK IC RM B752 OV GSH CONT LITE TURB
JOT UA /OV JOT/TM 1505/FL350/TP E170/TB CONS LGT-MOD CHOP
OKK UA /OV OKK/TM 1501/FL340/TP A320/TB OCNL LGT CHOP
MZZ UA /OV MZZ/TM 1459/FL290/TP B737/TB OCNL LGT CHOP
OXI UA /OV OXI/TM 1450/FL340/TP E170/TB CONS MOD CHOP

Connect with us on Facebook!

Facebook By Weblizar Powered By Weblizar